Bremen, Minnesota
Current Conditions -  °F | °C
As of 7:06 AM on Wednesday 26 Nov 2014 (Local Time) from K04W Reporting Station
Overcast Overcast  
Wind Chill: 21°   Ceiling: 7000
Heat Index: 21°   Visibility: 10mi
Dew Point: 19°   Wind: 0mph
Humidity: 93%   Direction: NA
Pressure: 30.11"   Gusts: NA
Location:  46.2114°N, 92.9743°W
Report Text: K04W 261306Z AUTO 00000KT 10SM OVC070 M06/M07 A3011 RMK AO2
Loading
Personal Weather Stations






























Interactive Weather Map New forecast layout! Learn more

10-Day Weather Forecast

Advertisements
Track Severe Weather on mobile